Time;durP1;ratioP1;P1;durP2;ratioP2;P2;SDS_P1;SDS_P2;PMS_P1;PMS_P2;Temp;Humidity;BMP_temperature;BMP_pressure;BME280_temperature;BME280_humidity;BME280_pressure;Samples;Min_cycle;Max_cycle;Signal;HPM_P1;HPM_P2
2022/06/28 00:00:04;;;;;;;;;2.00;2.00;;;;;19.68;51.87;101642.00;5015806;28;45360;-71
2022/06/28 00:02:29;;;;;;;;;3.67;3.67;;;;;19.75;51.72;101655.59;5017418;28;45471;-71
2022/06/28 00:04:55;;;;;;;;;2.00;2.00;;;;;19.77;52.43;101650.03;5015064;28;46394;-72
2022/06/28 00:07:20;;;;;;;;;0.00;0.00;;;;;19.65;52.17;101642.38;5016017;28;45905;-71
2022/06/28 00:09:46;;;;;;;;;2.00;2.00;;;;;19.74;52.51;101657.47;5014703;28;45431;-72
2022/06/28 00:12:12;;;;;;;;;1.00;1.00;;;;;19.68;52.43;101658.19;5016265;28;45335;-70
2022/06/28 00:17:21;;;;;;;;;3.00;2.00;;;;;19.57;52.65;101650.53;5020317;28;45535;-73
2022/06/28 00:19:47;;;;;;;;;3.00;2.67;;;;;19.55;52.65;101646.31;5028759;28;45519;-72
2022/06/28 00:22:12;;;;;;;;;3.00;3.00;;;;;19.44;52.65;101610.66;5040153;28;45442;-74
2022/06/28 00:24:37;;;;;;;;;3.00;1.33;;;;;19.73;52.47;101666.59;5040099;28;45597;-71
2022/06/28 00:27:03;;;;;;;;;2.00;1.33;;;;;19.26;52.60;101576.94;5040148;28;45353;-71
2022/06/28 00:29:28;;;;;;;;;2.33;2.33;;;;;19.66;52.36;101652.16;5039840;28;45463;-74
2022/06/28 00:31:54;;;;;;;;;3.33;1.00;;;;;19.29;52.30;101581.97;5040250;28;45296;-74
2022/06/28 00:34:19;;;;;;;;;2.00;2.00;;;;;19.69;52.57;101656.34;5038690;28;46230;-72
2022/06/28 00:36:45;;;;;;;;;3.00;2.00;;;;;19.48;52.65;101643.50;5072109;28;46110;-73
2022/06/28 00:39:11;;;;;;;;;1.00;1.00;;;;;19.30;52.67;101597.94;5040674;28;45371;-71
2022/06/28 00:41:37;;;;;;;;;1.00;1.00;;;;;19.43;52.56;101637.81;5040659;28;45423;-72
2022/06/28 00:44:02;;;;;;;;;0.67;0.67;;;;;19.51;52.74;101643.13;5039732;28;46451;-71
2022/06/28 00:46:29;;;;;;;;;2.33;1.00;;;;;19.44;53.03;101631.41;5039465;28;45481;-71
2022/06/28 00:48:55;;;;;;;;;1.00;1.00;;;;;19.15;53.11;101588.97;5038244;28;45488;-72
2022/06/28 00:51:20;;;;;;;;;1.00;1.00;;;;;19.50;53.12;101644.16;5039991;28;45564;-71
2022/06/28 00:53:46;;;;;;;;;1.00;1.00;;;;;19.29;52.86;101611.63;5039496;28;46540;-69
2022/06/28 00:56:11;;;;;;;;;1.00;0.00;;;;;19.28;53.13;101628.81;5039634;28;45508;-71
2022/06/28 00:58:37;;;;;;;;;2.67;1.00;;;;;19.23;53.20;101610.50;5039615;28;45321;-69
2022/06/28 01:01:02;;;;;;;;;2.00;2.00;;;;;19.09;53.41;101598.63;5038402;28;45639;-71
2022/06/28 01:03:28;;;;;;;;;0.00;0.00;;;;;18.91;53.34;101575.66;5039525;28;45616;-73
2022/06/28 01:05:54;;;;;;;;;2.00;1.00;;;;;19.13;53.47;101617.97;5039347;28;45472;-72
2022/06/28 01:08:19;;;;;;;;;1.00;1.00;;;;;19.20;53.26;101605.44;5039508;28;46128;-71
2022/06/28 01:10:46;;;;;;;;;2.67;1.00;;;;;19.44;53.25;101634.09;5039418;28;45498;-71
2022/06/28 01:13:12;;;;;;;;;0.67;0.67;;;;;19.46;53.45;101642.84;5054693;28;47775;-71
2022/06/28 01:15:40;;;;;;;;;0.33;0.33;;;;;19.25;53.30;101613.00;5039490;28;45241;-72
2022/06/28 01:18:06;;;;;;;;;0.33;0.33;;;;;19.07;53.55;101592.56;5040084;28;45387;-72
2022/06/28 01:20:32;;;;;;;;;2.67;2.33;;;;;19.30;53.42;101632.16;5039946;28;45513;-70
2022/06/28 01:22:58;;;;;;;;;1.33;1.33;;;;;18.94;53.53;101584.22;5039247;28;45537;-72
2022/06/28 01:25:24;;;;;;;;;1.00;1.00;;;;;19.24;53.68;101628.34;5038754;28;45343;-72
2022/06/28 01:27:54;;;;;;;;;1.00;1.00;;;;;19.05;53.77;101601.84;5038765;28;45444;-71
2022/06/28 01:30:20;;;;;;;;;1.33;1.33;;;;;19.24;53.47;101643.69;5039149;28;45560;-69
2022/06/28 01:32:46;;;;;;;;;3.33;1.00;;;;;19.15;53.97;101646.41;5038348;28;45541;-71
2022/06/28 01:35:12;;;;;;;;;3.00;2.00;;;;;18.54;53.80;101540.31;5038624;28;45526;-71
2022/06/28 01:37:37;;;;;;;;;3.00;1.33;;;;;18.87;53.92;101614.75;5039000;28;45498;-71
2022/06/28 01:40:04;;;;;;;;;1.00;1.00;;;;;19.10;53.89;101637.19;5039127;28;45301;-71
2022/06/28 01:42:30;;;;;;;;;1.33;1.00;;;;;18.67;53.54;101571.25;5038177;28;46402;-72
2022/06/28 01:44:57;;;;;;;;;1.00;1.00;;;;;19.08;53.45;101633.84;5038861;28;45423;-70
2022/06/28 01:47:25;;;;;;;;;1.00;0.00;;;;;19.06;53.41;101631.31;5038793;28;45215;-71
2022/06/28 01:49:51;;;;;;;;;4.00;3.00;;;;;18.86;53.97;101624.69;5038887;28;45334;-73
2022/06/28 01:52:16;;;;;;;;;2.67;1.33;;;;;18.96;53.75;101643.31;5038300;28;47095;-74
2022/06/28 01:54:42;;;;;;;;;0.67;0.33;;;;;18.91;54.08;101633.09;5038560;28;45239;-71
2022/06/28 01:57:08;;;;;;;;;1.00;1.00;;;;;18.76;54.13;101627.59;5038862;28;45332;-71
2022/06/28 01:59:35;;;;;;;;;3.00;1.00;;;;;18.73;53.97;101621.72;5038911;28;45297;-73
2022/06/28 02:02:01;;;;;;;;;1.00;0.00;;;;;18.38;54.41;101580.78;5038128;28;45626;-72
2022/06/28 02:04:28;;;;;;;;;1.33;1.33;;;;;18.54;54.49;101601.41;5038525;28;44790;-72
2022/06/28 02:06:54;;;;;;;;;2.00;2.00;;;;;18.58;54.67;101604.59;5038451;28;45287;-70
2022/06/28 02:09:20;;;;;;;;;3.00;1.33;;;;;18.61;54.44;101606.94;5038786;28;45242;-72
2022/06/28 02:11:45;;;;;;;;;2.00;1.00;;;;;18.77;54.28;101631.97;5038265;28;45607;-72
2022/06/28 02:14:11;;;;;;;;;0.33;0.33;;;;;18.76;54.21;101642.91;5038729;28;45254;-70
2022/06/28 02:16:37;;;;;;;;;0.67;0.33;;;;;18.72;54.42;101628.13;5037496;28;45384;-71
2022/06/28 02:19:03;;;;;;;;;2.67;0.00;;;;;18.52;54.23;101600.75;5038737;28;45355;-71
2022/06/28 02:21:34;;;;;;;;;0.00;0.00;;;;;18.62;54.39;101624.75;5038095;28;45959;-69
2022/06/28 02:23:59;;;;;;;;;1.33;0.00;;;;;18.64;54.74;101631.72;5038257;28;45272;-73
2022/06/28 02:26:24;;;;;;;;;2.00;0.67;;;;;18.68;54.02;101629.50;5038359;28;45221;-71
2022/06/28 02:28:50;;;;;;;;;0.33;0.33;;;;;18.70;54.10;101619.38;5037279;28;45278;-72
2022/06/28 02:31:15;;;;;;;;;0.00;0.00;;;;;18.70;53.78;101624.78;5037655;28;45576;-73
2022/06/28 02:33:42;;;;;;;;;1.00;1.00;;;;;18.71;54.07;101629.16;5037913;28;45462;-74
2022/06/28 02:41:37;;;;;;;;;1.00;1.00;;;;;18.70;53.53;101611.31;5037894;28;45305;-71
2022/06/28 02:44:03;;;;;;;;;1.00;1.00;;;;;18.78;53.68;101616.63;5038401;28;45201;-70
2022/06/28 02:46:29;;;;;;;;;1.00;0.67;;;;;18.66;53.90;101609.97;5037643;28;45504;-70
2022/06/28 02:48:54;;;;;;;;;1.00;1.00;;;;;18.52;53.83;101596.19;5053545;28;45481;-72
2022/06/28 02:51:20;;;;;;;;;1.00;1.00;;;;;18.33;54.01;101550.84;5037793;28;46760;-70
2022/06/28 02:53:46;;;;;;;;;1.00;1.00;;;;;18.73;53.66;101622.56;5036380;28;45807;-71
2022/06/28 02:56:11;;;;;;;;;1.00;1.00;;;;;18.83;53.79;101636.66;5037951;28;45280;-70
2022/06/28 02:58:37;;;;;;;;;0.00;0.00;;;;;18.86;53.53;101624.69;5037868;28;45339;-72
2022/06/28 03:01:02;;;;;;;;;0.33;0.33;;;;;18.83;53.54;101620.50;5037610;28;45547;-71
2022/06/28 03:03:28;;;;;;;;;1.67;1.67;;;;;18.77;53.72;101626.56;5037217;28;45498;-73
2022/06/28 03:05:53;;;;;;;;;0.00;0.00;;;;;18.79;53.78;101623.72;5037799;28;45478;-71
2022/06/28 03:08:18;;;;;;;;;0.33;0.33;;;;;18.79;53.46;101612.94;5037893;28;45415;-72
2022/06/28 03:10:44;;;;;;;;;0.00;0.00;;;;;18.91;53.50;101622.31;5037328;28;45448;-73
2022/06/28 03:13:09;;;;;;;;;1.33;1.33;;;;;18.72;53.01;101623.59;5069910;28;46238;-71
2022/06/28 03:15:35;;;;;;;;;1.00;0.00;;;;;18.68;52.90;101599.88;5037617;28;45349;-72
2022/06/28 03:18:01;;;;;;;;;1.00;1.00;;;;;18.78;53.08;101622.88;5037619;28;45221;-73
2022/06/28 03:20:28;;;;;;;;;1.33;1.00;;;;;18.51;53.16;101583.75;5037869;28;45515;-70
2022/06/28 03:22:54;;;;;;;;;0.33;0.33;;;;;18.55;53.33;101595.00;5035980;28;45463;-71
2022/06/28 03:25:19;;;;;;;;;2.67;1.00;;;;;18.50;53.44;101582.06;5036147;28;45332;-69
2022/06/28 03:27:44;;;;;;;;;0.67;0.33;;;;;18.75;53.35;101625.06;5052844;28;45533;-70
2022/06/28 03:30:10;;;;;;;;;0.33;0.33;;;;;18.67;53.29;101614.34;5037128;28;45336;-71
2022/06/28 03:32:35;;;;;;;;;1.00;1.00;;;;;18.66;53.30;101626.16;5035365;28;46096;-73
2022/06/28 03:35:01;;;;;;;;;1.00;1.00;;;;;18.67;53.10;101625.13;5037109;28;45403;-71
2022/06/28 03:37:26;;;;;;;;;1.67;0.33;;;;;18.63;53.15;101613.88;5037513;28;45382;-71
2022/06/28 03:39:51;;;;;;;;;1.00;1.00;;;;;18.69;52.71;101625.78;5036811;28;45411;-70
2022/06/28 03:42:17;;;;;;;;;1.00;1.00;;;;;18.64;52.64;101617.41;5036920;28;45240;-70
2022/06/28 03:44:42;;;;;;;;;1.00;1.00;;;;;18.63;52.75;101618.41;5037001;28;45463;-70
2022/06/28 03:47:08;;;;;;;;;0.00;0.00;;;;;18.65;52.85;101619.09;5037804;28;45526;-71
2022/06/28 03:49:33;;;;;;;;;1.00;1.00;;;;;18.54;52.72;101613.03;5040913;28;45278;-71
2022/06/28 03:51:59;;;;;;;;;1.67;1.67;;;;;18.61;53.01;101626.63;5040307;28;45257;-71
2022/06/28 03:54:25;;;;;;;;;2.00;2.00;;;;;18.48;52.66;101599.44;5040651;28;45392;-73
2022/06/28 03:56:51;;;;;;;;;0.00;0.00;;;;;18.21;52.48;101560.31;5039521;28;45546;-72
2022/06/28 03:59:16;;;;;;;;;0.00;0.00;;;;;17.96;52.32;101515.66;5040325;28;46512;-71
2022/06/28 04:01:42;;;;;;;;;0.00;0.00;;;;;18.61;52.17;101625.78;5038972;28;46170;-74
2022/06/28 04:04:07;;;;;;;;;0.00;0.00;;;;;18.47;52.37;101619.28;5039179;28;45328;-73
2022/06/28 04:06:34;;;;;;;;;0.33;0.00;;;;;18.57;52.30;101633.38;5057642;28;45601;-72
2022/06/28 04:09:00;;;;;;;;;2.00;1.00;;;;;18.49;52.45;101617.25;5041001;28;45696;-71
2022/06/28 04:11:26;;;;;;;;;1.00;1.00;;;;;18.52;52.23;101627.69;5040201;28;45388;-73
2022/06/28 04:13:53;;;;;;;;;1.67;1.00;;;;;18.57;51.97;101640.63;5040526;28;45400;-74
2022/06/28 04:16:20;;;;;;;;;1.00;1.00;;;;;18.16;52.04;101574.28;5040496;28;45246;-72
2022/06/28 04:18:47;;;;;;;;;0.00;0.00;;;;;18.35;52.12;101604.50;5040057;28;46885;-72
2022/06/28 04:21:14;;;;;;;;;0.00;0.00;;;;;18.48;52.01;101635.28;5039930;28;45461;-72
2022/06/28 04:23:41;;;;;;;;;1.00;1.00;;;;;18.48;52.14;101635.28;5040113;28;45286;-73
2022/06/28 04:26:07;;;;;;;;;0.00;0.00;;;;;18.44;52.16;101614.25;5039933;28;45372;-71
2022/06/28 04:28:33;;;;;;;;;1.67;1.00;;;;;18.16;51.69;101568.06;5071993;28;47148;-72
2022/06/28 04:30:58;;;;;;;;;1.00;1.00;;;;;18.63;52.13;101639.97;5039766;28;45322;-71
2022/06/28 04:33:25;;;;;;;;;0.00;0.00;;;;;18.60;51.44;101635.72;5072315;28;45332;-72
2022/06/28 04:35:50;;;;;;;;;1.00;1.00;;;;;18.36;52.08;101592.72;5040069;28;45380;-71
2022/06/28 04:38:16;;;;;;;;;0.00;0.00;;;;;18.13;51.34;101552.28;5038149;28;47260;-69
2022/06/28 04:40:41;;;;;;;;;2.00;1.00;;;;;18.60;51.65;101641.09;5038361;28;45359;-71
2022/06/28 04:43:07;;;;;;;;;2.00;0.67;;;;;18.58;51.41;101631.53;5039702;28;45547;-71
2022/06/28 04:45:32;;;;;;;;;1.67;0.67;;;;;18.61;51.53;101647.31;5039700;28;45527;-72
2022/06/28 04:47:58;;;;;;;;;0.00;0.00;;;;;18.72;51.10;101655.06;5037721;28;46309;-72
2022/06/28 04:50:24;;;;;;;;;0.00;0.00;;;;;18.68;51.21;101632.19;5039208;28;45441;-70
2022/06/28 04:52:49;;;;;;;;;1.00;1.00;;;;;18.74;51.07;101648.50;5039578;28;45625;-72
2022/06/28 04:55:16;;;;;;;;;1.00;1.00;;;;;18.79;50.75;101656.88;5055367;28;45509;-71
2022/06/28 04:57:41;;;;;;;;;1.00;0.33;;;;;18.69;50.78;101632.03;5039192;28;47037;-72
2022/06/28 05:00:07;;;;;;;;;0.67;0.00;;;;;18.66;50.60;101623.47;5038211;28;46031;-74
2022/06/28 05:02:34;;;;;;;;;1.00;1.00;;;;;18.75;50.14;101654.72;5038365;28;45512;-70
2022/06/28 05:05:00;;;;;;;;;2.00;2.00;;;;;18.67;50.77;101641.28;5039480;28;45523;-72
2022/06/28 05:07:25;;;;;;;;;0.00;0.00;;;;;18.71;50.75;101642.63;5038926;28;46255;-69
2022/06/28 05:09:50;;;;;;;;;0.33;0.33;;;;;18.69;50.08;101628.50;5039219;28;45189;-71
2022/06/28 05:12:15;;;;;;;;;1.33;1.00;;;;;18.71;50.03;101632.69;5039202;28;45649;-73
2022/06/28 05:14:41;;;;;;;;;0.33;0.33;;;;;18.64;49.67;101620.94;5039439;28;45427;-71
2022/06/28 05:17:06;;;;;;;;;0.00;0.00;;;;;18.68;49.51;101632.19;5039042;28;46109;-70
2022/06/28 05:19:33;;;;;;;;;4.33;4.33;;;;;18.73;49.54;101644.13;5039255;28;45306;-70
2022/06/28 05:21:59;;;;;;;;;5.00;5.00;;;;;18.75;49.61;101649.31;5034870;28;45533;-72
2022/06/28 05:24:25;;;;;;;;;1.00;1.00;;;;;18.89;49.27;101664.75;5038175;28;45518;-71
2022/06/28 05:26:50;;;;;;;;;1.33;1.33;;;;;18.85;48.89;101649.97;5039063;28;46496;-71
2022/06/28 05:29:16;;;;;;;;;2.00;0.67;;;;;18.89;49.01;101661.22;5038863;28;45467;-72
2022/06/28 05:31:41;;;;;;;;;1.00;1.00;;;;;18.83;49.42;101641.22;5040462;28;45421;-72
2022/06/28 05:34:06;;;;;;;;;1.00;1.00;;;;;19.01;49.17;101660.63;5065866;28;45608;-72
2022/06/28 05:36:32;;;;;;;;;2.00;1.00;;;;;19.00;48.86;101658.13;5038107;28;46209;-72
2022/06/28 05:38:57;;;;;;;;;0.33;0.33;;;;;19.08;49.28;101664.31;5036780;28;45238;-71
2022/06/28 05:41:23;;;;;;;;;1.33;1.00;;;;;18.91;49.41;101618.78;5037964;28;45752;-71
2022/06/28 05:43:49;;;;;;;;;2.00;1.00;;;;;19.02;49.17;101634.53;5038509;28;45174;-71
2022/06/28 05:46:14;;;;;;;;;1.00;1.00;;;;;18.97;49.20;101610.81;5038314;28;45475;-71
2022/06/28 05:48:39;;;;;;;;;1.67;1.00;;;;;19.29;49.08;101643.97;5053887;28;46029;-70
2022/06/28 05:51:05;;;;;;;;;1.67;1.00;;;;;19.29;48.99;101630.50;5037598;28;45339;-72
2022/06/28 05:53:30;;;;;;;;;0.00;0.00;;;;;19.49;48.42;101630.84;5037161;28;45556;-74
2022/06/28 05:55:56;;;;;;;;;1.00;1.00;;;;;19.80;48.59;101644.25;5038319;28;45804;-71
2022/06/28 05:58:21;;;;;;;;;9.00;7.00;;;;;20.07;47.83;101640.13;5024313;28;45221;-74
2022/06/28 06:00:48;;;;;;;;;1.67;1.67;;;;;19.78;46.36;101559.94;5018285;28;45492;-72
2022/06/28 06:03:13;;;;;;;;;1.00;1.00;;;;;20.45;46.64;101638.22;5017460;28;45572;-73
2022/06/28 06:05:38;;;;;;;;;0.33;0.33;;;;;20.68;45.01;101633.53;5060144;28;51842;-72
2022/06/28 06:08:04;;;;;;;;;0.67;0.67;;;;;20.71;44.61;101627.75;5036542;28;45477;-71
2022/06/28 06:10:29;;;;;;;;;2.00;0.33;;;;;21.05;44.01;101646.06;5037637;28;45313;-73
2022/06/28 06:12:55;;;;;;;;;0.00;0.00;;;;;21.20;43.76;101627.88;5038593;28;45493;-72
2022/06/28 06:15:20;;;;;;;;;1.67;0.00;;;;;21.70;43.33;101649.63;5038061;28;45426;-75
2022/06/28 06:17:46;;;;;;;;;1.00;1.00;;;;;21.69;42.40;101578.44;5021733;28;45642;-72
2022/06/28 06:20:12;;;;;;;;;3.33;0.33;;;;;22.10;41.92;101592.06;5037158;28;45379;-75
2022/06/28 06:22:37;;;;;;;;;1.67;1.67;;;;;22.44;41.02;101598.50;5030663;28;45403;-70
2022/06/28 06:25:04;;;;;;;;;1.00;1.00;;;;;22.44;41.09;101558.69;5035689;28;46586;-71
2022/06/28 06:27:30;;;;;;;;;2.00;2.00;;;;;22.49;40.48;101531.00;5037622;28;45391;-70
2022/06/28 06:29:55;;;;;;;;;3.00;2.00;;;;;23.32;40.26;101638.25;5035933;28;45347;-72
2022/06/28 06:32:20;;;;;;;;;0.00;0.00;;;;;23.61;39.22;101634.31;5026091;28;45519;-73
2022/06/28 06:34:46;;;;;;;;;1.33;1.33;;;;;23.78;39.84;101618.44;5013760;28;46673;-72
2022/06/28 06:37:11;;;;;;;;;0.00;0.00;;;;;23.86;39.11;101618.25;5016102;28;45358;-73
2022/06/28 06:39:37;;;;;;;;;2.67;1.00;;;;;23.86;38.47;101595.69;5016062;28;45515;-71
2022/06/28 06:42:02;;;;;;;;;2.00;2.00;;;;;24.04;38.11;101624.91;5032616;28;45436;-71
2022/06/28 06:44:28;;;;;;;;;0.67;0.67;;;;;24.16;38.25;101615.06;5016059;28;46997;-72
2022/06/28 06:46:55;;;;;;;;;0.00;0.00;;;;;24.31;38.29;101618.41;5017573;28;45525;-71
2022/06/28 06:49:20;;;;;;;;;0.00;0.00;;;;;24.41;38.45;101598.91;5026577;28;45511;-72
2022/06/28 06:51:47;;;;;;;;;2.67;0.33;;;;;24.58;37.43;101600.94;5036560;28;45442;-70
2022/06/28 06:54:15;;;;;;;;;4.00;4.00;;;;;24.79;37.11;101615.28;5046413;28;47987;-69
2022/06/28 06:56:42;;;;;;;;;3.33;0.67;;;;;24.77;37.19;101601.06;5038099;28;45275;-70
2022/06/28 06:59:08;;;;;;;;;1.00;1.00;;;;;24.97;37.06;101614.56;5038362;28;45275;-70
2022/06/28 07:01:34;;;;;;;;;1.00;1.00;;;;;25.16;36.49;101610.91;5033405;28;45379;-70
2022/06/28 07:04:03;;;;;;;;;2.00;2.00;;;;;25.27;36.17;101588.47;5024943;28;48338;-72
2022/06/28 07:06:28;;;;;;;;;1.67;1.00;;;;;25.20;36.14;101557.72;5056097;28;45446;-71
2022/06/28 07:08:54;;;;;;;;;1.00;1.00;;;;;25.41;36.88;101581.00;5037410;28;45240;-73
2022/06/28 07:11:19;;;;;;;;;1.33;1.00;;;;;24.98;35.75;101489.19;5017562;28;45468;-71
2022/06/28 07:13:45;;;;;;;;;2.00;1.33;;;;;25.76;35.83;101600.44;5017034;28;46452;-73
2022/06/28 07:16:10;;;;;;;;;1.00;1.00;;;;;25.68;36.35;101585.22;5039872;28;45289;-70
2022/06/28 07:18:36;;;;;;;;;4.00;3.50;;;;;25.96;35.39;101600.25;5051914;28;45554;-71
2022/06/28 07:21:01;;;;;;;;;1.00;1.00;;;;;25.93;35.19;101576.16;5036872;28;45462;-73
2022/06/28 07:23:27;;;;;;;;;1.33;1.00;;;;;25.99;35.32;101564.38;5051456;28;47615;-72
2022/06/28 07:25:52;;;;;;;;;2.00;2.00;;;;;25.64;35.00;101483.22;5036415;28;45277;-74
2022/06/28 07:28:18;;;;;;;;;0.67;0.67;;;;;25.98;34.78;101530.00;5031078;28;45361;-72
2022/06/28 07:30:44;;;;;;;;;1.00;1.00;;;;;25.99;35.07;101512.59;5015589;28;45448;-71
2022/06/28 07:33:13;;;;;;;;;0.33;0.00;;;;;26.53;35.26;101576.34;5016387;28;46376;-73
2022/06/28 07:35:39;;;;;;;;;1.00;1.00;;;;;26.66;35.51;101566.09;5032198;28;45553;-70
2022/06/28 07:38:05;;;;;;;;;1.67;1.67;;;;;26.70;34.37;101546.53;5016817;28;45297;-74
2022/06/28 07:40:30;;;;;;;;;1.00;1.00;;;;;26.90;34.03;101569.75;5016593;28;45729;-71
2022/06/28 07:42:55;;;;;;;;;2.33;2.00;;;;;27.08;34.03;101573.53;5016110;28;45553;-72
2022/06/28 07:45:21;;;;;;;;;2.67;2.67;;;;;26.94;33.26;101527.28;5016361;28;45420;-74
2022/06/28 07:47:49;;;;;;;;;2.00;2.00;;;;;27.23;33.88;101562.97;5016451;28;45330;-70
2022/06/28 07:53:05;;;;;;;;;4.67;2.00;;;;;27.51;34.04;101560.41;5013176;28;45455;-72
2022/06/28 07:55:31;;;;;;;;;2.00;2.00;;;;;27.66;33.16;101561.88;5015772;28;45306;-72
2022/06/28 07:57:58;;;;;;;;;2.67;2.67;;;;;27.76;32.64;101549.28;5032883;28;45162;-73
2022/06/28 08:00:24;;;;;;;;;2.67;2.00;;;;;27.69;32.55;101501.31;5060856;28;45672;-74
2022/06/28 08:02:50;;;;;;;;;1.67;1.67;;;;;27.97;32.18;101558.75;5016102;28;46344;-71
2022/06/28 08:05:16;;;;;;;;;1.00;1.00;;;;;27.86;32.37;101549.53;5016493;28;45508;-70
2022/06/28 08:07:43;;;;;;;;;2.00;2.00;;;;;27.72;32.81;101500.81;5020335;28;45427;-71
2022/06/28 08:10:08;;;;;;;;;3.33;2.00;;;;;28.32;32.46;101549.69;5016353;28;45546;-72
2022/06/28 08:12:34;;;;;;;;;5.00;2.00;;;;;27.66;31.37;101411.63;5015909;28;45473;-74
2022/06/28 08:15:00;;;;;;;;;3.00;2.00;;;;;28.52;32.14;101521.91;5016325;28;45300;-70
2022/06/28 08:17:25;;;;;;;;;4.33;4.00;;;;;27.98;31.95;101387.38;5016252;28;45182;-72
2022/06/28 08:19:51;;;;;;;;;5.00;4.00;;;;;29.24;31.35;101539.41;5016359;28;45325;-71
2022/06/28 08:22:16;;;;;;;;;3.67;3.67;;;;;29.43;30.27;101514.47;5016751;28;45616;-73
2022/06/28 08:24:42;;;;;;;;;2.00;2.00;;;;;29.72;30.06;101537.16;5019402;28;45454;-70
2022/06/28 08:27:08;;;;;;;;;5.00;5.00;;;;;28.95;29.96;101360.69;5014271;28;45344;-73
2022/06/28 08:29:34;;;;;;;;;3.67;3.00;;;;;30.16;28.89;101510.63;5014260;28;45385;-73
2022/06/28 08:32:00;;;;;;;;;2.33;2.33;;;;;30.49;28.91;101504.97;5015378;28;46285;-73
2022/06/28 08:34:26;;;;;;;;;5.67;4.00;;;;;30.57;27.78;101510.00;5016829;28;45448;-69
2022/06/28 08:36:52;;;;;;;;;3.67;3.67;;;;;30.50;28.06;101468.22;5018090;28;45510;-72
2022/06/28 08:39:17;;;;;;;;;7.33;7.33;;;;;30.98;27.57;101504.91;5033093;28;45557;-70
2022/06/28 08:41:43;;;;;;;;;1.67;1.67;;;;;31.21;27.56;101516.66;5017261;28;45771;-71
2022/06/28 08:44:10;;;;;;;;;2.00;2.00;;;;;31.25;27.02;101498.59;5017891;28;45458;-73
2022/06/28 08:46:37;;;;;;;;;2.00;1.00;;;;;31.23;26.83;101479.59;5019085;28;45460;-73
2022/06/28 08:49:06;;;;;;;;;2.00;2.00;;;;;31.44;26.60;101472.34;5019825;28;45531;-71
2022/06/28 08:51:32;;;;;;;;;1.67;1.67;;;;;32.04;26.30;101501.28;5018699;28;46862;-72
2022/06/28 08:54:02;;;;;;;;;4.33;4.33;;;;;32.43;26.37;101495.34;5016406;28;45530;-73
2022/06/28 08:56:28;;;;;;;;;4.67;2.67;;;;;32.86;25.07;101485.81;5026204;28;45293;-75
2022/06/28 08:58:58;;;;;;;;;2.00;2.00;;;;;33.05;24.40;101467.63;5025155;28;45482;-73
2022/06/28 09:01:24;;;;;;;;;4.00;2.33;;;;;33.54;23.48;101478.88;5028895;28;45830;-71
2022/06/28 09:03:52;;;;;;;;;1.67;1.67;;;;;33.87;23.27;101465.56;5034883;28;45413;-71
2022/06/28 09:06:17;;;;;;;;;2.00;1.00;;;;;34.09;22.65;101440.34;5017230;28;45336;-72
2022/06/28 09:08:43;;;;;;;;;0.67;0.67;;;;;34.31;20.78;101435.22;5017628;28;45456;-73
2022/06/28 09:11:09;;;;;;;;;2.00;0.67;;;;;34.45;20.04;101452.03;5026713;28;46616;-71
2022/06/28 09:13:35;;;;;;;;;1.33;1.33;;;;;34.73;19.30;101462.28;5037586;28;45399;-71
2022/06/28 09:16:04;;;;;;;;;0.00;0.00;;;;;34.79;19.67;101427.16;5037243;28;45462;-75
2022/06/28 09:18:35;;;;;;;;;0.67;0.67;;;;;35.50;20.89;101453.31;5065470;28;45521;-72
2022/06/28 09:21:04;;;;;;;;;3.67;0.00;;;;;36.03;19.83;101451.28;5050813;28;47738;-71
2022/06/28 09:23:33;;;;;;;;;0.67;0.33;;;;;35.80;19.34;101327.59;5050558;28;45559;-71
2022/06/28 09:26:06;;;;;;;;;2.67;1.33;;;;;36.70;18.44;101387.44;5018993;28;45268;-73
2022/06/28 09:28:34;;;;;;;;;1.00;1.00;;;;;37.51;17.31;101449.72;5033690;28;45345;-73
2022/06/28 09:31:35;;;;;;;;;2.00;1.00;;;;;38.04;16.57;101443.59;5053935;28;46303;-70
2022/06/28 09:34:03;;;;;;;;;1.00;1.00;;;;;38.55;17.34;101439.66;5043227;28;45486;-72
2022/06/28 09:36:34;;;;;;;;;1.00;1.00;;;;;38.93;16.30;101420.66;5066850;28;45333;-71
2022/06/28 09:39:17;;;;;;;;;4.00;3.00;;;;;39.72;15.93;101433.78;5053377;28;45648;-72
2022/06/28 09:41:50;;;;;;;;;1.00;1.00;;;;;40.31;15.45;101431.41;5038114;28;46438;-72
2022/06/28 09:44:17;;;;;;;;;3.00;1.67;;;;;40.82;15.12;101424.19;5030714;28;45941;-71
2022/06/28 09:46:44;;;;;;;;;2.00;2.00;;;;;40.98;15.09;101428.06;5033416;28;45858;-72
2022/06/28 09:49:10;;;;;;;;;1.33;0.33;;;;;40.80;14.44;101359.53;5027513;28;45583;-71
2022/06/28 09:51:37;;;;;;;;;1.00;1.00;;;;;41.04;14.04;101382.91;5017560;28;45806;-70
2022/06/28 09:54:08;;;;;;;;;1.00;1.00;;;;;41.29;13.97;101409.13;5018034;28;45420;-72
2022/06/28 09:56:46;;;;;;;;;1.00;1.00;;;;;41.28;13.52;101415.03;5018194;28;45427;-71
2022/06/28 09:59:12;;;;;;;;;1.00;1.00;;;;;40.83;13.58;101350.53;5018567;28;45245;-73
2022/06/28 10:01:40;;;;;;;;;0.33;0.00;;;;;41.07;13.26;101364.72;5016588;28;47923;-72
2022/06/28 10:04:06;;;;;;;;;1.00;1.00;;;;;41.17;13.29;101375.47;5017683;28;45363;-70
2022/06/28 10:06:31;;;;;;;;;1.67;1.67;;;;;40.49;12.94;101357.81;5018171;28;45325;-72
2022/06/28 10:08:59;;;;;;;;;1.00;1.00;;;;;39.86;14.10;101412.19;5018164;28;45297;-73
2022/06/28 10:11:24;;;;;;;;;1.33;0.33;;;;;38.56;14.69;101366.28;5017831;28;45622;-71
2022/06/28 10:16:45;;;;;;;;;0.33;0.33;;;;;36.62;16.39;101388.09;5017962;28;45305;-71
2022/06/28 10:19:11;;;;;;;;;3.00;1.00;;;;;35.08;17.37;101313.06;5050077;28;45563;-71
2022/06/28 10:21:57;;;;;;;;;0.00;0.00;;;;;34.57;18.77;101364.09;5017615;28;45272;-73
2022/06/28 10:24:22;;;;;;;;;1.00;1.00;;;;;34.00;19.40;101382.16;5017863;28;45582;-74
2022/06/28 10:27:14;;;;;;;;;2.00;2.00;;;;;33.20;20.18;101387.69;5017283;28;45648;-70
2022/06/28 10:29:58;;;;;;;;;2.00;2.00;;;;;32.09;21.37;101297.72;5049706;28;45387;-73
2022/06/28 10:32:50;;;;;;;;;2.33;2.33;;;;;32.15;21.07;101386.56;5018129;28;45545;-73
2022/06/28 10:35:31;;;;;;;;;4.33;4.33;;;;;31.73;21.99;101371.88;5016489;28;45479;-73
2022/06/28 10:38:08;;;;;;;;;2.00;2.00;;;;;31.38;22.10;101374.44;5018151;28;45518;-71
2022/06/28 10:40:47;;;;;;;;;1.00;1.00;;;;;30.84;22.79;101374.66;5033245;28;45579;-72
2022/06/28 10:43:32;;;;;;;;;1.00;1.00;;;;;30.40;22.61;101368.50;5032828;28;47917;-72
2022/06/28 10:46:02;;;;;;;;;5.00;2.00;;;;;30.13;23.15;101363.03;5031610;28;45502;-73
2022/06/28 10:48:28;;;;;;;;;4.33;2.33;;;;;29.38;24.03;101291.44;5033019;28;45435;-73
2022/06/28 10:51:01;;;;;;;;;2.00;2.00;;;;;29.61;23.64;101355.28;5017440;28;45234;-72
2022/06/28 10:53:47;;;;;;;;;2.67;2.67;;;;;28.46;23.63;101214.63;5017294;28;45470;-73
2022/06/28 10:56:15;;;;;;;;;2.67;2.67;;;;;29.17;23.98;101357.97;5017597;28;45269;-70
2022/06/28 10:59:04;;;;;;;;;2.00;2.00;;;;;28.97;23.85;101357.69;5016911;28;45470;-73
2022/06/28 11:01:44;;;;;;;;;2.00;2.00;;;;;28.85;24.75;101357.78;5017537;28;45502;-72
2022/06/28 11:04:19;;;;;;;;;17.00;16.00;;;;;28.75;24.74;101361.16;5017489;28;46320;-75
2022/06/28 11:06:53;;;;;;;;;3.00;3.00;;;;;28.41;24.87;101315.75;5017230;28;45447;-73
2022/06/28 11:09:46;;;;;;;;;2.00;2.00;;;;;27.88;25.08;101248.66;5017533;28;45368;-72
2022/06/28 11:12:37;;;;;;;;;1.00;1.00;;;;;28.42;25.06;101364.72;5019120;28;45302;-70
2022/06/28 11:15:08;;;;;;;;;5.00;4.00;;;;;28.27;24.46;101344.50;5017176;28;47022;-73
2022/06/28 11:17:42;;;;;;;;;3.00;2.00;;;;;28.15;24.42;101358.19;5017338;28;45498;-72
2022/06/28 11:20:08;;;;;;;;;1.33;1.33;;;;;27.94;24.30;101348.78;5017341;28;45525;-72
2022/06/28 11:22:43;;;;;;;;;4.00;2.33;;;;;27.74;24.93;101340.19;5017377;28;45342;-75
2022/06/28 11:25:14;;;;;;;;;2.00;2.00;;;;;27.64;24.78;101335.38;5028735;28;45762;-72
2022/06/28 11:27:56;;;;;;;;;1.00;1.00;;;;;27.54;25.85;101349.63;5036304;28;45359;-72
2022/06/28 11:30:26;;;;;;;;;2.00;2.00;;;;;27.00;25.82;101260.00;5037060;28;45337;-72
2022/06/28 11:32:54;;;;;;;;;2.67;2.00;;;;;27.33;26.27;101306.56;5034713;28;45495;-72
2022/06/28 11:35:25;;;;;;;;;3.67;2.67;;;;;27.42;26.02;101326.13;5033365;28;48214;-72
2022/06/28 11:37:59;;;;;;;;;1.00;1.00;;;;;27.47;26.32;101356.28;5049731;28;45999;-71